Terminal Aerodrome Forecast
Issued by NWS Des Moines, IA

Home | Current Version | Previous Version | Text Only | Print | Product List | Glossary On
Versions: 1 2 3 4 5 6 7 8 9 10 11 12 13 14 15 16 17 18 19 20 21 22 23 24 25 26 27 28 29 30
000
FTUS43 KDMX 271123
TAFDSM
TAF
KDSM 271123Z 2712/2812 31013G19KT 6SM -DZ OVC012
     FM271500 30012KT P6SM BKN020
     FM271900 29011KT P6SM SCT035
     FM272200 28008KT P6SM FEW120
     FM280200 VRB04KT P6SM SCT100=

USA.gov is the U.S. government's official web portal to all federal, state and local government web resources and services.